Time;durP1;ratioP1;P1;durP2;ratioP2;P2;SDS_P1;SDS_P2;PMS_P1;PMS_P2;Temp;Humidity;BMP_temperature;BMP_pressure;BME280_temperature;BME280_humidity;BME280_pressure;Samples;Min_cycle;Max_cycle;Signal;HPM_P1;HPM_P2
2021/11/23 10:16:02;;;;;;;7.03;1.50;;;10.10;99.90;;;;;;5088670;27;20348;-76
2021/11/23 10:18:30;;;;;;;4.70;1.40;;;10.00;99.90;;;;;;5082604;28;20174;-78
2021/11/23 10:21:03;;;;;;;9.73;2.10;;;9.90;99.90;;;;;;5080867;28;20045;-72
2021/11/23 10:23:35;;;;;;;8.33;2.40;;;9.90;99.90;;;;;;5066735;28;20136;-74
2021/11/23 10:26:09;;;;;;;7.70;1.60;;;9.80;99.90;;;;;;5068605;28;20110;-73
2021/11/23 10:28:35;;;;;;;6.37;1.53;;;9.80;99.90;;;;;;5068787;28;20056;-73
2021/11/23 10:31:04;;;;;;;10.17;2.30;;;9.80;99.90;;;;;;5066471;28;20044;-73
2021/11/23 10:33:32;;;;;;;8.40;1.77;;;10.00;99.90;;;;;;5067183;28;20112;-72
2021/11/23 10:35:59;;;;;;;9.97;2.10;;;10.00;99.90;;;;;;5067610;28;20052;-73
2021/11/23 10:38:27;;;;;;;8.03;2.07;;;10.10;99.90;;;;;;5066513;28;20374;-72
2021/11/23 10:40:53;;;;;;;11.37;1.90;;;10.20;99.90;;;;;;5068512;28;20087;-73
2021/11/23 10:43:21;;;;;;;5.13;1.40;;;10.30;99.90;;;;;;5068633;28;20136;-72
2021/11/23 10:45:50;;;;;;;8.80;1.70;;;10.40;99.90;;;;;;5066187;28;20128;-71
2021/11/23 13:46:45;;;;;;;9.60;1.90;;;10.10;99.90;;;;;;5099747;27;1204488;-75
2021/11/23 13:49:24;;;;;;;8.53;2.33;;;10.10;99.90;;;;;;5123572;28;20135;-75
2021/11/23 13:52:14;;;;;;;11.00;3.50;;;10.10;99.90;;;;;;5092084;27;20811;-76
2021/11/23 13:54:44;;;;;;;10.90;3.10;;;10.10;99.90;;;;;;5108122;28;20061;-73
2021/11/23 13:57:22;;;;;;;12.10;3.70;;;10.10;99.90;;;;;;5111198;28;20039;-73
2021/11/23 13:59:58;;;;;;;10.17;3.07;;;10.10;99.90;;;;;;5130208;28;20035;-73
2021/11/23 14:02:46;;;;;;;8.37;3.00;;;10.20;99.90;;;;;;5129236;28;20055;-75
2021/11/23 14:05:14;;;;;;;6.97;2.27;;;10.20;99.90;;;;;;5109086;28;20192;-74
2021/11/23 14:07:50;;;;;;;13.93;2.40;;;10.30;99.90;;;;;;5101443;28;20488;-74
2021/11/23 14:10:35;;;;;;;9.97;2.00;;;10.30;99.90;;;;;;5109397;28;20066;-77
2021/11/23 14:13:06;;;;;;;6.77;1.70;;;10.40;99.90;;;;;;5117142;28;20042;-77
2021/11/23 14:15:46;;;;;;;5.17;1.90;;;10.50;99.90;;;;;;5106460;28;20047;-76
2021/11/23 14:18:18;;;;;;;11.23;1.90;;;10.50;99.90;;;;;;5106528;28;20048;-73
2021/11/23 14:20:44;;;;;;;12.13;2.77;;;10.50;99.90;;;;;;5118319;28;20083;-73
2021/11/23 14:23:12;;;;;;;11.63;2.23;;;10.50;99.90;;;;;;5128814;28;20089;-74
2021/11/23 14:25:38;;;;;;;8.17;1.60;;;10.60;99.90;;;;;;5110974;28;20391;-75
2021/11/23 14:28:08;;;;;;;8.10;1.90;;;10.60;99.90;;;;;;5118803;28;20046;-73
2021/11/23 14:30:34;;;;;;;9.90;1.57;;;10.50;99.90;;;;;;5102521;28;20326;-76
2021/11/23 14:33:01;;;;;;;6.73;1.73;;;10.50;99.90;;;;;;5124180;28;20047;-75
2021/11/23 14:35:28;;;;;;;7.37;1.50;;;10.60;99.90;;;;;;5111021;28;20047;-76
2021/11/23 14:37:54;;;;;;;7.47;1.77;;;10.50;99.90;;;;;;5107864;28;20050;-74
2021/11/23 14:40:20;;;;;;;8.97;1.93;;;10.50;99.90;;;;;;5110305;28;20494;-73
2021/11/23 14:42:45;;;;;;;9.07;2.10;;;10.50;99.90;;;;;;5110203;28;20067;-73
2021/11/23 14:45:12;;;;;;;9.23;2.53;;;10.50;99.90;;;;;;5109383;28;20131;-73
2021/11/23 14:47:37;;;;;;;6.30;2.00;;;10.50;99.90;;;;;;5128758;27;20133;-72
2021/11/23 14:50:05;;;;;;;10.57;2.33;;;10.50;99.90;;;;;;5129021;28;20523;-70
2021/11/23 14:52:31;;;;;;;5.83;1.53;;;10.60;99.90;;;;;;5128479;28;20471;-72
2021/11/23 14:54:59;;;;;;;8.47;1.93;;;10.60;99.90;;;;;;5128696;28;20067;-77
2021/11/23 14:57:28;;;;;;;7.77;2.00;;;10.50;99.90;;;;;;5116819;28;20097;-71
2021/11/23 14:59:55;;;;;;;6.57;1.87;;;10.50;99.90;;;;;;5096343;28;20039;-74
2021/11/23 15:02:21;;;;;;;7.53;2.80;;;10.50;99.90;;;;;;5097241;28;20506;-76
2021/11/23 15:04:48;;;;;;;10.43;2.80;;;10.50;99.90;;;;;;5095612;28;20039;-75
2021/11/23 15:07:15;;;;;;;9.77;2.33;;;10.50;99.90;;;;;;5097199;28;20055;-76
2021/11/23 15:09:42;;;;;;;9.33;2.47;;;10.50;99.90;;;;;;5115270;28;20035;-76
2021/11/23 15:12:13;;;;;;;14.47;5.23;;;10.40;99.90;;;;;;5112036;28;20059;-75
2021/11/23 15:14:39;;;;;;;16.57;10.70;;;10.40;99.90;;;;;;5093434;28;20047;-75
2021/11/23 15:17:06;;;;;;;15.43;7.83;;;10.50;99.90;;;;;;5094936;28;20044;-75
2021/11/23 15:19:32;;;;;;;21.77;11.13;;;10.40;99.90;;;;;;5092551;28;20048;-73
2021/11/23 15:21:58;;;;;;;19.03;9.00;;;10.50;99.90;;;;;;5105394;28;20131;-73
2021/11/23 15:24:23;;;;;;;15.17;9.97;;;10.40;99.90;;;;;;5114772;28;20032;-74
2021/11/23 15:26:49;;;;;;;11.90;7.37;;;10.50;99.90;;;;;;5095691;28;20452;-73
2021/11/23 15:29:15;;;;;;;13.63;7.73;;;10.40;99.90;;;;;;5115039;28;20036;-75
2021/11/23 15:31:40;;;;;;;11.80;8.03;;;10.50;99.90;;;;;;5096382;28;20076;-76
2021/11/23 15:34:08;;;;;;;15.47;8.20;;;10.40;99.90;;;;;;5113858;28;20080;-73
2021/11/23 15:36:33;;;;;;;13.70;9.97;;;10.50;99.90;;;;;;5096010;28;20051;-72
2021/11/23 15:38:59;;;;;;;10.63;8.23;;;10.50;99.90;;;;;;5096288;28;20411;-72
2021/11/23 15:41:25;;;;;;;9.43;5.77;;;10.60;99.90;;;;;;5112903;28;20404;-72
2021/11/23 15:43:50;;;;;;;24.10;13.27;;;10.60;99.90;;;;;;5114273;28;20039;-75
2021/11/23 15:46:16;;;;;;;24.13;15.23;;;10.60;99.90;;;;;;5092077;28;20142;-73
2021/11/23 15:48:41;;;;;;;22.27;13.77;;;10.70;99.90;;;;;;5091149;28;20055;-73
2021/11/23 15:51:07;;;;;;;20.97;14.00;;;10.70;99.90;;;;;;5096382;28;20039;-73
2021/11/23 15:53:35;;;;;;;21.87;16.97;;;10.60;99.90;;;;;;5111385;28;20469;-74
2021/11/23 15:56:02;;;;;;;18.00;11.97;;;10.60;99.90;;;;;;5114275;28;20442;-74
2021/11/23 15:58:29;;;;;;;15.33;8.27;;;10.50;99.90;;;;;;5112505;28;20434;-71
2021/11/23 16:00:56;;;;;;;12.63;5.60;;;10.40;99.90;;;;;;5112200;28;20078;-72
2021/11/23 16:03:22;;;;;;;13.93;7.27;;;10.30;99.90;;;;;;5113650;28;20035;-71
2021/11/23 16:05:50;;;;;;;10.43;5.47;;;10.30;99.90;;;;;;5113462;28;20059;-74
2021/11/23 16:08:18;;;;;;;13.93;7.30;;;10.20;99.90;;;;;;5110547;28;20054;-74
2021/11/23 16:10:44;;;;;;;14.63;8.80;;;10.20;99.90;;;;;;5111792;28;20052;-69
2021/11/23 16:13:10;;;;;;;14.87;7.83;;;10.20;99.90;;;;;;5114100;28;20112;-71
2021/11/23 16:15:35;;;;;;;11.07;4.73;;;10.10;99.90;;;;;;5111272;28;20126;-75
2021/11/23 16:18:01;;;;;;;7.17;3.40;;;10.10;99.90;;;;;;5111884;28;20043;-70
2021/11/23 16:20:27;;;;;;;7.53;3.43;;;10.10;99.90;;;;;;5112237;28;20058;-71
2021/11/23 16:22:52;;;;;;;9.73;4.00;;;10.10;99.90;;;;;;5111395;28;20101;-71
2021/11/23 16:25:18;;;;;;;9.27;3.90;;;10.00;99.90;;;;;;5113373;28;20399;-71
2021/11/23 16:27:47;;;;;;;8.73;3.37;;;9.90;99.90;;;;;;5111841;28;20101;-75
2021/11/23 16:30:16;;;;;;;6.17;2.70;;;9.90;99.90;;;;;;5111620;28;20118;-73
2021/11/23 16:32:41;;;;;;;10.13;4.33;;;9.90;99.90;;;;;;5112855;28;20059;-72
2021/11/23 16:35:08;;;;;;;10.47;5.67;;;9.80;99.90;;;;;;5112384;28;20051;-77
2021/11/23 16:37:34;;;;;;;9.23;3.90;;;9.80;99.90;;;;;;5112298;28;20492;-75
2021/11/23 16:40:01;;;;;;;12.73;4.30;;;9.70;99.90;;;;;;5111878;28;20036;-76
2021/11/23 16:42:29;;;;;;;8.37;3.70;;;9.70;99.90;;;;;;5111692;28;20040;-75
2021/11/23 16:44:54;;;;;;;10.00;4.33;;;9.60;99.90;;;;;;5117690;27;20103;-77
2021/11/23 16:47:20;;;;;;;14.77;6.17;;;9.60;99.90;;;;;;5133392;27;20043;-76
2021/11/23 16:49:46;;;;;;;16.17;8.00;;;9.60;99.90;;;;;;5114403;27;20039;-75
2021/11/23 16:52:13;;;;;;;22.47;13.17;;;9.50;99.90;;;;;;5133598;27;20050;-77
2021/11/23 16:54:41;;;;;;;24.07;17.00;;;9.50;99.90;;;;;;5132948;27;20039;-77
2021/11/23 16:57:07;;;;;;;21.10;11.87;;;9.40;99.90;;;;;;5132445;27;20408;-78
2021/11/23 16:59:35;;;;;;;18.97;10.30;;;9.40;99.90;;;;;;5114931;27;20039;-77
2021/11/23 17:02:01;;;;;;;15.63;9.60;;;9.40;99.90;;;;;;5114564;27;20058;-79
2021/11/23 17:04:27;;;;;;;15.57;9.00;;;9.30;99.90;;;;;;5113822;27;20047;-72
2021/11/23 17:06:54;;;;;;;13.53;6.93;;;9.30;99.90;;;;;;5133127;27;20395;-71
2021/11/23 17:09:25;;;;;;;12.70;7.43;;;9.30;99.90;;;;;;5133425;27;20566;-72
2021/11/23 17:11:51;;;;;;;13.77;6.63;;;9.30;99.90;;;;;;5132978;27;20039;-72
2021/11/23 17:14:18;;;;;;;17.30;8.80;;;9.30;99.90;;;;;;5132822;27;20437;-72
2021/11/23 17:16:44;;;;;;;16.37;9.13;;;9.30;99.90;;;;;;5132829;27;20046;-71
2021/11/23 17:19:10;;;;;;;17.57;6.73;;;9.20;99.90;;;;;;5132183;27;20044;-70
2021/11/23 17:21:36;;;;;;;9.43;5.17;;;9.20;99.90;;;;;;5114545;27;20128;-71
2021/11/23 17:24:01;;;;;;;13.27;5.17;;;9.20;99.90;;;;;;5114650;27;20070;-71
2021/11/23 17:26:27;;;;;;;11.03;5.50;;;9.30;99.90;;;;;;5112877;27;20047;-71
2021/11/23 17:28:53;;;;;;;9.23;5.50;;;9.30;99.90;;;;;;5132591;27;20582;-71
2021/11/23 17:31:18;;;;;;;14.47;12.97;;;9.30;99.90;;;;;;5114643;27;20046;-70
2021/11/23 17:33:44;;;;;;;13.17;10.23;;;9.40;99.90;;;;;;5131461;27;20429;-70
2021/11/23 19:10:07;;;;;;;11.87;6.13;;;8.40;99.90;;;;;;5083809;27;20363;-76
2021/11/23 19:12:33;;;;;;;13.43;10.57;;;8.40;99.90;;;;;;5088996;28;20062;-77
2021/11/23 19:15:01;;;;;;;11.07;7.83;;;8.40;99.90;;;;;;5090337;28;20481;-74
2021/11/23 19:17:27;;;;;;;15.60;9.47;;;8.40;99.90;;;;;;5070393;28;20044;-75
2021/11/23 19:19:54;;;;;;;14.40;8.80;;;8.40;99.90;;;;;;5070741;28;20048;-74
2021/11/23 19:22:21;;;;;;;17.63;15.53;;;8.40;99.90;;;;;;5070933;28;20505;-76
2021/11/23 19:24:49;;;;;;;14.37;9.63;;;8.40;99.90;;;;;;5070009;28;20114;-79
2021/11/23 19:27:16;;;;;;;15.77;9.23;;;8.40;99.90;;;;;;5071671;28;20127;-82
2021/11/23 19:29:42;;;;;;;14.03;11.77;;;8.40;99.90;;;;;;5090425;28;20044;-84
2021/11/23 19:32:08;;;;;;;14.87;13.30;;;8.40;99.90;;;;;;5089319;28;20185;-83
2021/11/23 19:34:33;;;;;;;14.83;13.43;;;8.40;99.90;;;;;;5070562;28;20051;-84
2021/11/23 19:36:59;;;;;;;11.17;9.37;;;8.50;99.90;;;;;;5089016;28;20086;-82
2021/11/23 19:39:27;;;;;;;10.83;9.73;;;8.50;99.90;;;;;;5088115;28;20056;-83
2021/11/23 19:41:56;;;;;;;18.17;16.40;;;8.60;99.90;;;;;;5071148;28;20129;-82
2021/11/23 19:44:21;;;;;;;10.60;8.17;;;8.60;99.90;;;;;;5089084;28;20048;-83
2021/11/23 19:46:47;;;;;;;9.83;6.53;;;8.70;99.90;;;;;;5069903;28;20060;-84
2021/11/23 19:49:14;;;;;;;8.27;7.17;;;8.70;99.90;;;;;;5088790;28;20128;-82
2021/11/23 19:51:40;;;;;;;8.77;6.30;;;8.80;99.90;;;;;;5070633;28;20101;-83
2021/11/23 19:54:08;;;;;;;11.73;10.23;;;8.80;99.90;;;;;;5070760;28;20048;-82
2021/11/23 19:56:34;;;;;;;11.20;9.43;;;8.90;99.90;;;;;;5088505;28;20342;-82
2021/11/23 19:59:00;;;;;;;10.87;9.23;;;8.90;99.90;;;;;;5089167;28;20042;-82
2021/11/23 20:01:27;;;;;;;11.60;8.27;;;8.90;99.90;;;;;;5069667;28;20052;-75
2021/11/23 20:03:53;;;;;;;8.73;7.00;;;9.00;99.90;;;;;;5070459;28;20500;-75
2021/11/23 20:06:18;;;;;;;11.43;6.53;;;9.00;99.90;;;;;;5070234;28;20067;-83
2021/11/23 20:08:44;;;;;;;17.27;15.57;;;9.00;99.90;;;;;;5085252;28;20055;-86
2021/11/23 20:11:12;;;;;;;9.67;6.40;;;9.00;99.90;;;;;;5070271;28;20048;-82
2021/11/23 20:13:38;;;;;;;7.67;5.83;;;9.00;99.90;;;;;;5069415;28;20408;-81
2021/11/23 20:16:03;;;;;;;9.83;6.43;;;9.00;99.90;;;;;;5072449;28;20037;-81
2021/11/23 20:18:29;;;;;;;8.10;6.10;;;9.00;99.90;;;;;;5047884;28;20041;-79
2021/11/23 20:20:58;;;;;;;7.73;5.57;;;9.10;99.90;;;;;;5057165;28;20505;-78
2021/11/23 20:23:25;;;;;;;8.37;6.30;;;9.10;99.90;;;;;;5033829;28;20405;-81
2021/11/23 20:25:52;;;;;;;10.87;7.00;;;9.10;99.90;;;;;;5054708;28;20037;-81
2021/11/23 20:28:21;;;;;;;5.57;4.93;;;9.10;99.90;;;;;;5053602;28;20394;-82
2021/11/23 20:30:47;;;;;;;7.00;5.93;;;9.20;99.90;;;;;;5051965;28;20041;-80
2021/11/23 20:33:12;;;;;;;11.40;5.60;;;9.30;99.90;;;;;;5055495;28;20040;-83
2021/11/23 20:35:38;;;;;;;8.73;5.73;;;9.30;99.90;;;;;;5035036;28;20052;-85
2021/11/23 20:38:05;;;;;;;11.53;9.83;;;9.30;99.90;;;;;;5055089;28;20116;-82
2021/11/23 20:40:30;;;;;;;7.83;5.27;;;9.30;99.90;;;;;;5036526;28;20045;-80
2021/11/23 20:43:00;;;;;;;10.90;5.27;;;9.40;99.90;;;;;;5057642;28;20046;-82
2021/11/23 20:45:28;;;;;;;7.20;6.13;;;9.40;99.90;;;;;;5033281;28;20038;-80
2021/11/23 20:47:54;;;;;;;11.07;6.20;;;9.40;99.90;;;;;;5037213;28;20045;-83
2021/11/23 20:50:20;;;;;;;12.27;7.50;;;9.40;99.90;;;;;;5054106;28;20106;-82
2021/11/23 20:52:46;;;;;;;12.77;6.50;;;9.40;99.90;;;;;;5055940;28;20474;-83
